Time;durP1;ratioP1;P1;durP2;ratioP2;P2;SDS_P1;SDS_P2;PMS_P1;PMS_P2;Temp;Humidity;BMP_temperature;BMP_pressure;BME280_temperature;BME280_humidity;BME280_pressure;Samples;Min_cycle;Max_cycle;Signal;HPM_P1;HPM_P2
2021/12/29 00:00:47;;;;;;;0.40;0.30;;;;;;;3.44;100.00;99193.56;5071803;28;20969;-70
2021/12/29 00:03:15;;;;;;;0.40;0.30;;;;;;;3.45;100.00;99195.16;5072995;28;20445;-70
2021/12/29 00:05:42;;;;;;;0.40;0.20;;;;;;;3.44;100.00;99198.94;5073024;28;20476;-69
2021/12/29 00:08:09;;;;;;;0.40;0.20;;;;;;;3.42;100.00;99198.44;5073095;28;20458;-69
2021/12/29 00:10:36;;;;;;;0.40;0.30;;;;;;;3.43;100.00;99189.31;5072791;28;20829;-70
2021/12/29 00:13:04;;;;;;;0.50;0.30;;;;;;;3.45;100.00;99200.50;5073014;28;20478;-70
2021/12/29 00:15:32;;;;;;;0.40;0.20;;;;;;;3.46;100.00;99194.09;5072648;28;20472;-70
2021/12/29 00:17:59;;;;;;;0.40;0.30;;;;;;;3.47;100.00;99201.84;5072834;28;20460;-70
2021/12/29 00:20:31;;;;;;;0.40;0.30;;;;;;;3.49;100.00;99220.28;5072763;28;20444;-70
2021/12/29 00:22:58;;;;;;;0.40;0.23;;;;;;;3.52;100.00;99214.34;5073319;28;20441;-70
2021/12/29 00:25:25;;;;;;;0.40;0.30;;;;;;;3.56;100.00;99226.06;5072418;28;20457;-68
2021/12/29 00:27:54;;;;;;;1.03;1.03;;;;;;;3.57;100.00;99230.34;5072539;28;20816;-70
2021/12/29 00:30:21;;;;;;;0.90;0.90;;;;;;;3.60;100.00;99237.00;5073029;28;20449;-70
2021/12/29 00:32:48;;;;;;;0.40;0.30;;;;;;;3.64;100.00;99238.03;5072527;28;20441;-71
2021/12/29 00:35:15;;;;;;;0.40;0.40;;;;;;;3.68;100.00;99239.84;5072721;28;20905;-70
2021/12/29 00:37:43;;;;;;;0.40;0.20;;;;;;;3.69;100.00;99243.31;5072739;28;20787;-72
2021/12/29 00:40:10;;;;;;;0.40;0.20;;;;;;;3.71;100.00;99249.97;5072871;28;20438;-70
2021/12/29 00:42:38;;;;;;;0.40;0.30;;;;;;;3.72;100.00;99256.94;5072792;28;20467;-70
2021/12/29 00:45:06;;;;;;;0.70;0.70;;;;;;;3.69;100.00;99248.66;5072452;28;20898;-70
2021/12/29 00:47:34;;;;;;;0.40;0.20;;;;;;;3.70;100.00;99256.41;5072518;28;20464;-70
2021/12/29 00:50:01;;;;;;;0.40;0.30;;;;;;;3.68;100.00;99253.22;5072462;28;20531;-69
2021/12/29 00:52:27;;;;;;;0.40;0.27;;;;;;;3.65;100.00;99253.78;5072442;28;20449;-70
2021/12/29 00:54:55;;;;;;;0.40;0.30;;;;;;;3.63;100.00;99253.31;5072516;28;21081;-69
2021/12/29 00:57:22;;;;;;;0.40;0.30;;;;;;;3.63;100.00;99261.34;5072324;28;20456;-69
2021/12/29 00:59:48;;;;;;;0.40;0.30;;;;;;;3.59;100.00;99262.19;5072648;28;20441;-69
2021/12/29 01:02:15;;;;;;;0.40;0.30;;;;;;;3.60;100.00;99267.25;5072371;28;20442;-69
2021/12/29 01:04:41;;;;;;;0.40;0.20;;;;;;;3.63;100.00;99266.69;5072539;28;20457;-70
2021/12/29 01:07:08;;;;;;;0.70;0.70;;;;;;;3.62;100.00;99262.41;5072322;28;20444;-70
2021/12/29 01:09:34;;;;;;;0.40;0.20;;;;;;;3.61;100.00;99268.03;5072499;28;20487;-69
2021/12/29 01:12:03;;;;;;;0.40;0.30;;;;;;;3.57;100.00;99278.53;5072683;28;20445;-70
2021/12/29 01:14:31;;;;;;;0.40;0.30;;;;;;;3.54;100.00;99271.06;5075634;28;20485;-70
2021/12/29 01:16:58;;;;;;;0.40;0.20;;;;;;;3.54;100.00;99271.88;5075898;28;20452;-70
2021/12/29 01:19:27;;;;;;;0.40;0.30;;;;;;;3.52;100.00;99275.91;5075717;28;20445;-70
2021/12/29 01:21:57;;;;;;;0.83;0.83;;;;;;;3.50;100.00;99283.44;5075983;28;20441;-70
2021/12/29 01:24:26;;;;;;;0.40;0.30;;;;;;;3.47;100.00;99287.47;5075379;28;20441;-68
2021/12/29 01:26:52;;;;;;;0.40;0.30;;;;;;;3.44;100.00;99285.38;5075599;28;20437;-69
2021/12/29 01:29:20;;;;;;;0.40;0.20;;;;;;;3.40;100.00;99288.91;5075847;28;20442;-69
2021/12/29 01:31:47;;;;;;;0.40;0.30;;;;;;;3.34;100.00;99285.50;5075903;28;20850;-71
2021/12/29 01:34:15;;;;;;;0.70;0.70;;;;;;;3.29;100.00;99297.06;5075441;28;20481;-69
2021/12/29 01:36:41;;;;;;;0.40;0.23;;;;;;;3.24;100.00;99301.66;5075435;28;20446;-70
2021/12/29 01:39:16;;;;;;;0.40;0.30;;;;;;;3.25;100.00;99305.94;5075718;28;20494;-70
2021/12/29 01:41:44;;;;;;;0.40;0.30;;;;;;;3.21;100.00;99300.34;5075421;28;20448;-69
2021/12/29 01:44:12;;;;;;;8.70;8.20;;;;;;;3.16;100.00;99305.75;5075513;28;20434;-71
2021/12/29 01:46:41;;;;;;;0.40;0.30;;;;;;;3.14;100.00;99310.56;5073221;28;20860;-70
2021/12/29 01:49:08;;;;;;;0.40;0.30;;;;;;;3.11;100.00;99310.38;5055757;28;20438;-70
2021/12/29 01:51:35;;;;;;;0.40;0.20;;;;;;;3.06;100.00;99311.22;5055392;28;20457;-69
2021/12/29 01:54:14;;;;;;;0.40;0.20;;;;;;;3.00;100.00;99312.34;5071262;28;20512;-70
2021/12/29 01:56:44;;;;;;;0.40;0.20;;;;;;;2.95;100.00;99315.06;5075359;28;20506;-71
2021/12/29 01:59:10;;;;;;;0.40;0.20;;;;;;;2.92;100.00;99323.63;5074976;28;20481;-70
2021/12/29 02:01:37;;;;;;;9.17;4.73;;;;;;;2.91;100.00;99322.03;5075196;28;20522;-70
2021/12/29 02:04:05;;;;;;;0.40;0.30;;;;;;;2.89;100.00;99329.56;5074650;28;20502;-70
2021/12/29 02:06:31;;;;;;;0.40;0.30;;;;;;;2.85;100.00;99331.19;5075126;28;20468;-73
2021/12/29 02:08:58;;;;;;;0.40;0.30;;;;;;;2.84;100.00;99329.63;5074588;28;20954;-69
2021/12/29 02:11:29;;;;;;;0.40;0.30;;;;;;;2.81;100.00;99332.84;5075066;28;20441;-68
2021/12/29 02:13:56;;;;;;;0.40;0.30;;;;;;;2.85;100.00;99336.56;5074454;28;20951;-68
2021/12/29 02:16:23;;;;;;;0.40;0.30;;;;;;;2.87;100.00;99353.09;5074903;28;20853;-70
2021/12/29 02:18:53;;;;;;;0.40;0.20;;;;;;;2.90;100.00;99352.53;5074399;28;20499;-70
2021/12/29 02:21:22;;;;;;;0.40;0.20;;;;;;;2.88;100.00;99357.34;5074476;28;20445;-70
2021/12/29 02:24:15;;;;;;;0.40;0.30;;;;;;;2.91;100.00;99354.13;5074428;28;20433;-70
2021/12/29 02:26:42;;;;;;;0.40;0.30;;;;;;;2.90;100.00;99360.56;5074651;28;20433;-70
2021/12/29 02:29:11;;;;;;;0.40;0.20;;;;;;;2.90;100.00;99360.56;5074382;28;20452;-71
2021/12/29 02:31:38;;;;;;;0.40;0.30;;;;;;;2.91;100.00;99367.50;5074325;28;20817;-70
2021/12/29 02:34:07;;;;;;;1.53;1.43;;;;;;;2.91;100.00;99373.66;5074206;28;20489;-71
2021/12/29 02:36:42;;;;;;;0.40;0.20;;;;;;;2.95;100.00;99380.03;5074493;28;20450;-70
2021/12/29 02:39:09;;;;;;;0.40;0.30;;;;;;;2.97;100.00;99372.53;5074266;28;20473;-71
2021/12/29 02:41:36;;;;;;;0.40;0.30;;;;;;;3.05;100.00;99384.50;5074323;28;20450;-70
2021/12/29 02:44:04;;;;;;;0.40;0.20;;;;;;;3.08;100.00;99378.59;5073585;28;20972;-70
2021/12/29 02:46:32;;;;;;;0.40;0.27;;;;;;;3.03;100.00;99382.13;5074308;28;20468;-71
2021/12/29 02:48:59;;;;;;;0.40;0.30;;;;;;;3.02;100.00;99379.72;5073963;28;20449;-70
2021/12/29 02:51:26;;;;;;;0.40;0.30;;;;;;;3.00;100.00;99377.31;5074239;28;20484;-69
2021/12/29 02:53:54;;;;;;;0.40;0.30;;;;;;;3.04;100.00;99380.22;5073856;28;20441;-70
2021/12/29 02:56:22;;;;;;;2.20;2.10;;;;;;;3.10;100.00;99383.66;5074110;28;20461;-68
2021/12/29 02:58:49;;;;;;;0.40;0.30;;;;;;;3.11;100.00;99386.06;5073848;28;20853;-70
2021/12/29 03:01:17;;;;;;;0.40;0.30;;;;;;;3.15;100.00;99387.09;5073909;28;20458;-69
2021/12/29 03:03:43;;;;;;;0.50;0.40;;;;;;;3.17;100.00;99390.28;5073996;28;20441;-70
2021/12/29 03:06:11;;;;;;;0.40;0.30;;;;;;;3.23;100.00;99391.84;5073321;28;20882;-69
2021/12/29 03:08:38;;;;;;;0.40;0.20;;;;;;;3.23;100.00;99391.84;5073610;28;20926;-70
2021/12/29 03:11:07;;;;;;;0.40;0.30;;;;;;;3.26;100.00;99390.47;5072977;28;20449;-69
2021/12/29 03:13:35;;;;;;;0.50;0.50;;;;;;;3.31;100.00;99382.38;5073828;28;20441;-70
2021/12/29 03:16:02;;;;;;;0.40;0.30;;;;;;;3.35;100.00;99388.78;5073238;28;20481;-70
2021/12/29 03:18:29;;;;;;;0.40;0.23;;;;;;;3.29;100.00;99381.88;5073651;28;20490;-71
2021/12/29 03:20:56;;;;;;;0.40;0.27;;;;;;;3.35;100.00;99379.94;5073122;28;20449;-70
2021/12/29 03:23:23;;;;;;;0.40;0.20;;;;;;;3.42;100.00;99383.09;5073659;28;20460;-69
2021/12/29 03:25:51;;;;;;;0.40;0.30;;;;;;;3.46;100.00;99395.63;5073300;28;20465;-70
2021/12/29 03:28:21;;;;;;;0.40;0.30;;;;;;;3.50;100.00;99402.03;5073650;28;20838;-70
2021/12/29 03:30:52;;;;;;;0.40;0.30;;;;;;;3.53;100.00;99404.13;5073233;28;20856;-70
2021/12/29 03:33:19;;;;;;;0.40;0.30;;;;;;;3.59;100.00;99420.16;5073584;28;20429;-70
2021/12/29 03:35:48;;;;;;;0.40;0.40;;;;;;;3.62;100.00;99414.22;5072431;28;20489;-70
2021/12/29 03:38:17;;;;;;;0.40;0.27;;;;;;;3.62;100.00;99409.66;5073195;28;20453;-70
2021/12/29 03:40:44;;;;;;;0.40;0.20;;;;;;;3.63;100.00;99416.63;5073140;28;20442;-71
2021/12/29 03:43:12;;;;;;;0.40;0.20;;;;;;;3.62;100.00;99408.84;5073436;28;20494;-70
2021/12/29 03:45:41;;;;;;;0.40;0.20;;;;;;;3.61;100.00;99416.09;5072984;28;20473;-70
2021/12/29 03:48:10;;;;;;;0.40;0.30;;;;;;;3.62;100.00;99417.69;5072763;28;20946;-71
2021/12/29 03:50:37;;;;;;;0.40;0.20;;;;;;;3.64;100.00;99420.88;5073411;28;20453;-69
2021/12/29 03:53:04;;;;;;;0.40;0.20;;;;;;;3.68;100.00;99429.16;5072929;28;20437;-69
2021/12/29 03:55:30;;;;;;;0.40;0.30;;;;;;;3.68;100.00;99419.25;5073105;28;20485;-69
2021/12/29 03:57:57;;;;;;;0.40;0.20;;;;;;;3.66;100.00;99431.31;5072953;28;20996;-69
2021/12/29 04:00:24;;;;;;;0.40;0.30;;;;;;;3.62;100.00;99431.06;5072960;28;20445;-70
2021/12/29 04:02:52;;;;;;;0.40;0.30;;;;;;;3.59;100.00;99428.97;5072869;28;20441;-70
2021/12/29 04:05:21;;;;;;;0.40;0.20;;;;;;;3.61;100.00;99429.47;5073084;28;20822;-70
2021/12/29 04:07:49;;;;;;;0.40;0.30;;;;;;;3.63;100.00;99443.41;5072736;28;20438;-70
2021/12/29 04:10:16;;;;;;;0.40;0.30;;;;;;;3.62;100.00;99444.44;5073063;28;20449;-70
2021/12/29 04:12:43;;;;;;;0.40;0.37;;;;;;;3.60;100.00;99460.00;5072819;28;20451;-70
2021/12/29 04:15:11;;;;;;;0.40;0.30;;;;;;;3.58;100.00;99464.84;5072711;28;20485;-70
2021/12/29 04:17:39;;;;;;;3.70;3.40;;;;;;;3.58;100.00;99475.53;5072826;28;20880;-70
2021/12/29 04:22:54;;;;;;;0.40;0.30;;;;;;;3.63;100.00;99474.69;5072876;28;20421;-70
2021/12/29 04:25:24;;;;;;;0.40;0.27;;;;;;;3.64;100.00;99481.66;5072617;28;20462;-71
2021/12/29 04:27:50;;;;;;;0.40;0.23;;;;;;;3.63;100.00;99488.09;5072902;28;20444;-71
2021/12/29 04:30:17;;;;;;;0.40;0.20;;;;;;;3.64;100.00;99490.50;5072382;28;20969;-71
2021/12/29 04:32:43;;;;;;;0.40;0.30;;;;;;;3.68;100.00;99488.84;5072666;28;20938;-71
2021/12/29 04:35:11;;;;;;;0.40;0.27;;;;;;;3.64;100.00;99492.38;5072619;28;20492;-71
2021/12/29 04:37:39;;;;;;;0.40;0.20;;;;;;;3.67;100.00;99495.28;5072731;28;20445;-70
2021/12/29 04:40:07;;;;;;;1.23;1.23;;;;;;;3.68;100.00;99499.56;5074323;28;20456;-70
2021/12/29 04:42:34;;;;;;;2.10;2.00;;;;;;;3.69;100.00;99505.72;5072523;28;20782;-70
2021/12/29 04:45:00;;;;;;;1.60;1.50;;;;;;;3.67;100.00;99513.22;5072716;28;20457;-68
2021/12/29 04:47:30;;;;;;;0.40;0.30;;;;;;;3.67;100.00;99513.22;5075447;28;20445;-69
2021/12/29 04:49:59;;;;;;;0.40;0.20;;;;;;;3.70;100.00;99513.47;5076535;28;20445;-68
2021/12/29 04:52:28;;;;;;;0.40;0.20;;;;;;;3.73;100.00;99512.91;5075871;28;20449;-69
2021/12/29 04:54:54;;;;;;;0.40;0.30;;;;;;;3.73;100.00;99512.91;5076355;28;20515;-68
2021/12/29 04:57:21;;;;;;;0.40;0.23;;;;;;;3.75;100.00;99524.13;5076044;28;20445;-70
2021/12/29 04:59:48;;;;;;;0.40;0.20;;;;;;;3.73;100.00;99520.94;5076107;28;20433;-70
2021/12/29 05:02:14;;;;;;;0.40;0.20;;;;;;;3.72;100.00;99524.72;5076352;28;20441;-68
2021/12/29 05:04:47;;;;;;;0.40;0.20;;;;;;;3.73;100.00;99528.19;5076069;28;20469;-70
2021/12/29 05:10:00;;;;;;;0.40;0.30;;;;;;;3.71;100.00;99525.75;5075829;28;20447;-69
2021/12/29 05:12:27;;;;;;;0.40;0.30;;;;;;;3.72;100.00;99543.44;5075995;28;20449;-70
2021/12/29 05:14:53;;;;;;;0.40;0.20;;;;;;;3.70;100.00;99534.09;5075978;28;20472;-70
2021/12/29 05:17:20;;;;;;;0.40;0.30;;;;;;;3.70;100.00;99540.25;5075714;28;20460;-70
2021/12/29 05:19:46;;;;;;;0.40;0.20;;;;;;;3.76;100.00;99543.66;5076095;28;20456;-70
2021/12/29 05:22:13;;;;;;;0.40;0.30;;;;;;;3.84;100.00;99553.78;5075769;28;20448;-70
2021/12/29 05:24:39;;;;;;;0.50;0.40;;;;;;;3.96;100.00;99559.56;5075902;28;20510;-70
2021/12/29 05:27:07;;;;;;;0.40;0.30;;;;;;;4.06;100.00;99564.03;5075458;28;20500;-70
2021/12/29 05:29:33;;;;;;;0.40;0.30;;;;;;;4.15;100.00;99567.69;5075582;28;20859;-70
2021/12/29 05:32:00;;;;;;;0.50;0.20;;;;;;;4.26;100.00;99566.50;5075195;28;20978;-70
2021/12/29 05:34:26;;;;;;;0.40;0.23;;;;;;;4.31;100.00;99576.38;5075758;28;20437;-70
2021/12/29 05:36:53;;;;;;;0.40;0.20;;;;;;;4.30;100.00;99574.78;5074298;28;20488;-70
2021/12/29 05:39:20;;;;;;;0.40;0.30;;;;;;;4.37;100.00;99582.47;5075500;28;20445;-70
2021/12/29 05:41:46;;;;;;;0.40;0.20;;;;;;;4.39;100.00;99585.69;5075138;28;20449;-70
2021/12/29 05:44:14;;;;;;;0.40;0.30;;;;;;;4.44;100.00;99582.94;5075509;28;20456;-70
2021/12/29 05:46:40;;;;;;;0.40;0.30;;;;;;;4.48;100.00;99592.03;5075197;28;20445;-70
2021/12/29 05:49:07;;;;;;;0.40;0.30;;;;;;;4.53;100.00;99594.63;5060509;28;20442;-70
2021/12/29 05:51:33;;;;;;;0.40;0.30;;;;;;;4.59;100.00;99592.69;5055161;28;20947;-70
2021/12/29 05:54:00;;;;;;;0.40;0.30;;;;;;;4.65;100.00;99596.91;5070077;28;20441;-70
2021/12/29 05:56:26;;;;;;;0.40;0.30;;;;;;;4.70;100.00;99594.19;5075076;28;20667;-68
2021/12/29 05:58:53;;;;;;;0.40;0.30;;;;;;;4.70;100.00;99599.53;5074016;28;20449;-68
2021/12/29 06:01:21;;;;;;;0.40;0.20;;;;;;;4.73;100.00;99599.75;5074925;28;20448;-70
2021/12/29 06:03:47;;;;;;;0.40;0.20;;;;;;;4.80;100.00;99607.47;5075281;28;20449;-71
2021/12/29 06:06:13;;;;;;;0.40;0.20;;;;;;;4.83;100.00;99614.94;5074835;28;20461;-70
2021/12/29 06:08:40;;;;;;;0.40;0.20;;;;;;;4.84;100.00;99613.84;5075137;28;20460;-70
2021/12/29 06:11:06;;;;;;;0.40;0.20;;;;;;;4.86;100.00;99616.25;5074949;28;20441;-70
2021/12/29 06:13:33;;;;;;;0.40;0.30;;;;;;;4.85;100.00;99618.13;5074814;28;20441;-70
2021/12/29 06:15:59;;;;;;;0.40;0.23;;;;;;;4.85;100.00;99623.50;5074892;28;20492;-70
2021/12/29 06:18:27;;;;;;;0.40;0.30;;;;;;;4.86;100.00;99629.66;5074579;28;20464;-70
2021/12/29 06:20:54;;;;;;;0.40;0.30;;;;;;;4.84;100.00;99629.16;5074615;28;20445;-70
2021/12/29 06:23:20;;;;;;;0.40;0.30;;;;;;;4.82;100.00;99626.75;5074522;28;20442;-69
2021/12/29 06:25:47;;;;;;;0.40;0.20;;;;;;;4.83;100.00;99631.03;5074772;28;20516;-68
2021/12/29 06:28:13;;;;;;;0.40;0.30;;;;;;;4.83;100.00;99625.69;5070809;28;20462;-68
2021/12/29 06:30:40;;;;;;;0.40;0.30;;;;;;;4.81;100.00;99639.34;5059445;28;20445;-67
2021/12/29 06:33:06;;;;;;;0.40;0.20;;;;;;;4.77;100.00;99637.53;5074410;28;20450;-69
2021/12/29 06:35:34;;;;;;;0.40;0.20;;;;;;;4.71;100.00;99644.06;5073201;28;20474;-69
2021/12/29 06:38:01;;;;;;;0.40;0.30;;;;;;;4.65;100.00;99645.19;5074072;28;20434;-70
2021/12/29 06:40:27;;;;;;;0.40;0.30;;;;;;;4.63;100.00;99650.84;5073728;28;20449;-71
2021/12/29 06:42:54;;;;;;;0.40;0.20;;;;;;;4.62;100.00;99656.50;5074108;28;20452;-71
2021/12/29 06:45:20;;;;;;;0.40;0.20;;;;;;;4.64;100.00;99663.16;5074119;28;20461;-71
2021/12/29 06:47:46;;;;;;;0.40;0.30;;;;;;;4.66;100.00;99663.69;5074019;28;20454;-72
2021/12/29 06:50:13;;;;;;;0.57;0.30;;;;;;;4.69;100.00;99671.16;5073650;28;20839;-71
2021/12/29 06:52:41;;;;;;;0.40;0.30;;;;;;;4.73;100.00;99666.00;5074305;28;20468;-70
2021/12/29 06:55:09;;;;;;;0.40;0.30;;;;;;;4.77;100.00;99675.09;5073987;28;20515;-70
2021/12/29 06:57:35;;;;;;;4.63;4.33;;;;;;;4.80;100.00;99687.94;5073902;28;20434;-71
2021/12/29 07:00:03;;;;;;;0.40;0.20;;;;;;;4.85;100.00;99681.72;5068235;28;20450;-72
2021/12/29 07:02:29;;;;;;;0.40;0.30;;;;;;;4.84;100.00;99680.94;5055845;28;20453;-71
2021/12/29 07:04:56;;;;;;;0.40;0.30;;;;;;;4.78;100.00;99688.25;5073645;28;21068;-71
2021/12/29 07:07:23;;;;;;;0.40;0.30;;;;;;;4.78;100.00;99684.72;5073757;28;20445;-71
2021/12/29 07:09:50;;;;;;;0.40;0.20;;;;;;;4.82;100.00;99693.81;5072966;28;20454;-71
2021/12/29 07:12:19;;;;;;;0.40;0.20;;;;;;;4.78;100.00;99693.59;5073546;28;20928;-71
2021/12/29 07:14:46;;;;;;;0.40;0.30;;;;;;;4.85;100.00;99698.63;5073573;28;20560;-70
2021/12/29 07:17:15;;;;;;;0.40;0.20;;;;;;;4.88;100.00;99691.91;5073438;28;20485;-71
2021/12/29 07:19:42;;;;;;;0.90;0.90;;;;;;;4.87;100.00;99690.28;5073813;28;20445;-71
2021/12/29 07:22:08;;;;;;;0.40;0.20;;;;;;;4.87;100.00;99707.19;5073066;28;21022;-71
2021/12/29 07:24:36;;;;;;;0.40;0.30;;;;;;;4.90;100.00;99703.13;5073612;28;21017;-71
2021/12/29 07:27:04;;;;;;;0.50;0.40;;;;;;;4.91;100.00;99704.72;5073204;28;20446;-71
2021/12/29 07:29:31;;;;;;;0.40;0.30;;;;;;;4.90;100.00;99716.53;5073127;28;20449;-71
2021/12/29 07:31:58;;;;;;;0.40;0.20;;;;;;;4.89;100.00;99712.25;5073367;28;20453;-71
2021/12/29 07:34:26;;;;;;;0.40;0.30;;;;;;;4.90;100.00;99716.53;5073230;28;20477;-69
2021/12/29 07:36:53;;;;;;;0.40;0.30;;;;;;;4.89;100.00;99720.31;5073330;28;20477;-69
2021/12/29 07:39:19;;;;;;;0.40;0.30;;;;;;;4.91;100.00;99724.28;5073257;28;20441;-69
2021/12/29 07:41:46;;;;;;;0.50;0.50;;;;;;;4.94;100.00;99725.63;5073659;28;20450;-70
2021/12/29 07:44:16;;;;;;;0.40;0.20;;;;;;;4.98;100.00;99729.34;5073189;28;20494;-70
2021/12/29 07:46:45;;;;;;;0.60;0.40;;;;;;;5.03;100.00;99732.75;5073162;28;20862;-70
2021/12/29 07:49:11;;;;;;;0.40;0.20;;;;;;;5.05;100.00;99740.53;5073480;28;20445;-70
2021/12/29 07:51:40;;;;;;;0.40;0.30;;;;;;;5.02;100.00;99752.63;5072443;28;20461;-70
2021/12/29 07:54:07;;;;;;;0.40;0.27;;;;;;;5.06;100.00;99750.19;5073035;28;20449;-71
2021/12/29 07:56:33;;;;;;;0.40;0.23;;;;;;;5.09;100.00;99755.00;5054993;28;20493;-70
2021/12/29 07:59:00;;;;;;;0.40;0.30;;;;;;;5.13;100.00;99752.53;5060043;28;20453;-70
2021/12/29 08:01:28;;;;;;;0.40;0.20;;;;;;;5.13;100.00;99761.38;5073274;28;20815;-68
2021/12/29 08:03:55;;;;;;;0.40;0.30;;;;;;;5.15;100.00;99772.63;5073073;28;20453;-68
2021/12/29 08:06:21;;;;;;;0.40;0.30;;;;;;;5.14;100.00;99781.78;5072810;28;20461;-68
2021/12/29 08:08:48;;;;;;;0.40;0.30;;;;;;;5.17;100.00;99791.94;5072805;28;20450;-66
2021/12/29 08:11:16;;;;;;;0.40;0.30;;;;;;;5.14;100.00;99797.09;5072492;28;20461;-65
2021/12/29 08:13:43;;;;;;;0.40;0.20;;;;;;;5.16;100.00;99797.59;5073220;28;20874;-67
2021/12/29 08:16:09;;;;;;;0.40;0.30;;;;;;;5.16;100.00;99800.28;5072515;28;20485;-69
2021/12/29 08:18:37;;;;;;;0.40;0.20;;;;;;;5.19;100.00;99805.88;5072719;28;20866;-68
2021/12/29 08:21:04;;;;;;;0.40;0.20;;;;;;;5.21;100.00;99803.69;5073707;28;20499;-71
2021/12/29 08:23:31;;;;;;;0.40;0.30;;;;;;;5.24;100.00;99802.34;5076394;28;20954;-70
2021/12/29 08:25:58;;;;;;;0.40;0.20;;;;;;;5.29;100.00;99811.13;5076728;28;20491;-69
2021/12/29 08:28:25;;;;;;;0.40;0.30;;;;;;;5.28;100.00;99812.22;5040577;28;20443;-69
2021/12/29 08:30:52;;;;;;;4.43;4.13;;;;;;;5.35;100.00;99811.06;5067993;28;20460;-70
2021/12/29 08:33:19;;;;;;;0.40;0.20;;;;;;;5.39;100.00;99817.47;5076918;28;20805;-71
2021/12/29 08:35:47;;;;;;;0.40;0.30;;;;;;;5.39;100.00;99820.97;5075997;28;20993;-72
2021/12/29 08:38:15;;;;;;;0.40;0.20;;;;;;;5.43;100.00;99826.56;5076279;28;21000;-71
2021/12/29 08:40:51;;;;;;;0.40;0.40;;;;;;;5.45;100.00;99825.22;5076506;28;20437;-72
2021/12/29 08:43:18;;;;;;;0.40;0.20;;;;;;;5.48;100.00;99835.38;5076813;28;20437;-72
2021/12/29 08:45:47;;;;;;;0.40;0.20;;;;;;;5.44;100.00;99830.84;5062883;28;20838;-72
2021/12/29 08:48:14;;;;;;;0.90;0.90;;;;;;;5.48;100.00;99837.25;5057840;28;20865;-70
2021/12/29 08:50:40;;;;;;;0.40;0.30;;;;;;;5.51;100.00;99839.38;5066144;28;20445;-71
2021/12/29 08:53:11;;;;;;;0.40;0.30;;;;;;;5.50;100.00;99849.31;5076515;28;20449;-71
2021/12/29 08:55:44;;;;;;;0.40;0.20;;;;;;;5.50;100.00;99845.84;5069303;28;20458;-69
2021/12/29 08:58:13;;;;;;;0.40;0.23;;;;;;;5.53;100.00;99853.31;5055321;28;20478;-69
2021/12/29 09:00:39;;;;;;;0.40;0.20;;;;;;;5.55;100.00;99859.22;5057166;28;20434;-72
2021/12/29 09:03:06;;;;;;;0.40;0.27;;;;;;;5.55;100.00;99857.31;5057552;28;20473;-69
2021/12/29 09:05:33;;;;;;;0.40;0.30;;;;;;;5.62;100.00;99862.34;5070929;28;21059;-68
2021/12/29 09:07:59;;;;;;;5.73;5.20;;;;;;;5.61;100.00;99860.75;5075431;28;20437;-69
2021/12/29 09:10:27;;;;;;;2.37;2.27;;;;;;;5.66;100.00;99866.06;5075759;28;20487;-70
2021/12/29 09:12:54;;;;;;;0.40;0.30;;;;;;;5.69;100.00;99865.50;5075944;28;20446;-71
2021/12/29 09:15:21;;;;;;;0.40;0.20;;;;;;;5.74;100.00;99867.31;5075994;28;20477;-69
2021/12/29 09:17:48;;;;;;;0.40;0.30;;;;;;;5.75;100.00;99875.09;5075455;28;20489;-69
2021/12/29 09:20:23;;;;;;;0.40;0.20;;;;;;;5.77;100.00;99881.00;5074894;28;20871;-69
2021/12/29 09:22:50;;;;;;;0.40;0.30;;;;;;;5.79;100.00;99878.81;5075361;28;20436;-71
2021/12/29 09:25:17;;;;;;;0.40;0.20;;;;;;;5.82;100.00;99880.91;5058427;28;20488;-71
2021/12/29 09:27:47;;;;;;;0.40;0.27;;;;;;;5.87;100.00;99884.63;5075904;28;20542;-71
2021/12/29 09:30:13;;;;;;;0.40;0.30;;;;;;;5.91;100.00;99888.34;5075896;28;20433;-71
2021/12/29 09:32:40;;;;;;;0.40;0.27;;;;;;;5.91;100.00;99886.47;5074111;28;20865;-71
2021/12/29 09:35:07;;;;;;;0.40;0.30;;;;;;;5.91;100.00;99891.03;5075231;28;20465;-70
2021/12/29 09:37:34;;;;;;;0.50;0.30;;;;;;;5.92;100.00;99887.28;5075763;28;20477;-71
2021/12/29 09:40:00;;;;;;;0.40;0.30;;;;;;;5.93;100.00;99888.88;5075191;28;20821;-71
2021/12/29 09:42:27;;;;;;;0.50;0.30;;;;;;;5.90;100.00;99889.44;5075662;28;20520;-70
2021/12/29 09:44:55;;;;;;;0.40;0.20;;;;;;;5.92;100.00;99890.78;5075243;28;20469;-71
2021/12/29 09:47:21;;;;;;;0.40;0.20;;;;;;;5.94;100.00;99893.19;5075336;28;20441;-71
2021/12/29 09:49:48;;;;;;;0.40;0.30;;;;;;;5.95;100.00;99884.84;5074237;28;20465;-72
2021/12/29 09:52:14;;;;;;;0.40;0.20;;;;;;;5.97;100.00;99888.03;5060031;28;20449;-72
2021/12/29 09:54:41;;;;;;;0.40;0.23;;;;;;;6.00;100.00;99892.84;5054014;28;20462;-72
2021/12/29 09:57:07;;;;;;;0.40;0.30;;;;;;;5.96;100.00;99891.81;5058818;28;21013;-71
2021/12/29 09:59:34;;;;;;;0.40;0.30;;;;;;;5.90;100.00;99894.81;5053929;28;20430;-71
2021/12/29 10:02:02;;;;;;;0.40;0.20;;;;;;;5.94;100.00;99885.13;5053707;28;20450;-72
2021/12/29 10:04:28;;;;;;;0.40;0.20;;;;;;;5.94;100.00;99879.75;5053353;28;20500;-72
2021/12/29 10:06:54;;;;;;;0.40;0.30;;;;;;;5.96;100.00;99882.94;5062489;28;20977;-70
2021/12/29 10:09:22;;;;;;;0.40;0.30;;;;;;;5.99;100.00;99887.75;5074857;28;20449;-70
2021/12/29 10:11:49;;;;;;;0.40;0.30;;;;;;;5.99;100.00;99888.56;5073323;28;20472;-70
2021/12/29 10:14:18;;;;;;;0.40;0.30;;;;;;;6.00;100.00;99894.72;5074469;28;20450;-72
2021/12/29 10:16:48;;;;;;;0.40;0.30;;;;;;;6.00;100.00;99889.34;5069137;28;20576;-72
2021/12/29 10:19:16;;;;;;;0.40;0.20;;;;;;;6.00;100.00;99894.72;5074735;28;20430;-75
2021/12/29 10:21:45;;;;;;;0.40;0.27;;;;;;;6.02;100.00;99896.06;5046607;28;20443;-72
2021/12/29 10:24:12;;;;;;;0.40;0.30;;;;;;;6.04;100.00;99901.94;5058158;28;20528;-72
2021/12/29 10:26:41;;;;;;;0.40;0.20;;;;;;;6.05;100.00;99898.16;5057060;28;20439;-71
2021/12/29 10:29:09;;;;;;;0.40;0.30;;;;;;;6.02;100.00;99901.44;5053111;28;20449;-68
2021/12/29 10:31:42;;;;;;;0.40;0.30;;;;;;;6.03;100.00;99897.66;5054953;28;20824;-68
2021/12/29 10:34:12;;;;;;;0.40;0.20;;;;;;;6.03;100.00;99894.97;5051322;28;20442;-69
2021/12/29 10:36:42;;;;;;;0.93;0.93;;;;;;;6.04;100.00;99895.75;5055514;28;20492;-69
2021/12/29 10:39:13;;;;;;;0.40;0.20;;;;;;;6.04;100.00;99901.94;5051285;28;20517;-67
2021/12/29 10:41:51;;;;;;;0.40;0.23;;;;;;;6.03;100.00;99905.72;5056154;28;20496;-70
2021/12/29 10:44:28;;;;;;;2.50;2.30;;;;;;;6.06;100.00;99904.31;5052717;28;20513;-69
2021/12/29 10:46:56;;;;;;;0.80;0.80;;;;;;;6.10;100.00;99907.25;5055131;28;20957;-69
2021/12/29 10:49:24;;;;;;;0.40;0.30;;;;;;;6.12;100.00;99913.16;5053526;28;20986;-70
2021/12/29 10:51:52;;;;;;;0.40;0.20;;;;;;;6.14;100.00;99911.75;5054632;28;20962;-70
2021/12/29 10:54:24;;;;;;;0.40;0.30;;;;;;;6.12;100.00;99913.16;5054232;28;20450;-71
2021/12/29 10:57:01;;;;;;;0.40;0.20;;;;;;;6.10;100.00;99902.66;5053293;28;20986;-70
2021/12/29 10:59:31;;;;;;;0.40;0.30;;;;;;;6.06;100.00;99904.31;5067594;28;20938;-70
2021/12/29 11:01:58;;;;;;;0.40;0.20;;;;;;;6.10;100.00;99915.31;5073841;28;20453;-71
2021/12/29 11:04:26;;;;;;;0.40;0.30;;;;;;;6.12;100.00;99922.00;5073872;28;20449;-71
2021/12/29 11:06:56;;;;;;;0.40;0.30;;;;;;;6.14;100.00;99913.66;5073454;28;20445;-70
2021/12/29 11:09:26;;;;;;;0.40;0.20;;;;;;;6.15;100.00;99913.34;5073875;28;20442;-70
2021/12/29 11:11:52;;;;;;;0.40;0.30;;;;;;;6.21;100.00;99927.53;5073397;28;20438;-71
2021/12/29 11:14:22;;;;;;;0.40;0.27;;;;;;;6.27;100.00;99921.00;5073771;28;20442;-71
2021/12/29 11:17:02;;;;;;;0.40;0.20;;;;;;;6.32;100.00;99913.66;5073111;28;20457;-71
2021/12/29 11:19:28;;;;;;;20.93;11.23;;;;;;;6.41;100.00;99910.34;5073434;28;20440;-70
2021/12/29 11:22:11;;;;;;;0.40;0.30;;;;;;;6.47;100.00;99922.66;5073763;28;20441;-71
2021/12/29 11:24:39;;;;;;;9.63;3.90;;;;;;;6.49;100.00;99923.13;5073054;28;21057;-70
2021/12/29 11:27:10;;;;;;;0.40;0.20;;;;;;;6.50;100.00;99941.66;5073569;28;20555;-70
2021/12/29 11:29:48;;;;;;;0.40;0.23;;;;;;;6.48;100.00;99946.56;5073249;28;20470;-71
2021/12/29 11:32:20;;;;;;;0.40;0.30;;;;;;;6.50;100.00;99938.19;5073486;28;20458;-71
2021/12/29 11:35:02;;;;;;;0.40;0.30;;;;;;;6.51;100.00;99951.38;5073523;28;20481;-71
2021/12/29 11:37:30;;;;;;;0.40;0.30;;;;;;;6.49;100.00;99955.41;5073010;28;20465;-70
2021/12/29 11:39:57;;;;;;;0.40;0.30;;;;;;;6.52;100.00;99954.84;5073436;28;20448;-70
2021/12/29 11:42:24;;;;;;;0.40;0.30;;;;;;;6.52;100.00;99962.94;5073062;28;20441;-71